Città:
 IT 
 EN 
 FR 
 DE 
 ES 

Dati meteo attuali Milano

Datameteo.com - Informazione e servizi avanzati per la meteorologia,la nautica e la protezione civile
Milano / Linate, Italy
Alba: 4:42 AM UTC1
Tramonto: 7:55 PM UTC1
 Lat: 45.42N, Lon: 9.27E
ICAO Used: LIML
Condizioni Meteo Attuali Aggiornate: 25.05.2024 alle 07:20 UTC
Coperto
Coperto
Coperto
Temp: 17°C
Umidita': 83%
Direz/Vel. Vento: variabile 2 / KT raffiche
Pressione: 1017 hPa
Punto di rugiada: 14°C
Temperatura percepita: 17°C
Visibilitą: >10 KM (ottima)
Temperatura percepita in
presenza di vento (Wind Chill)
:
N/D
T. max (ultime 24 ore): 16°C
T. min (ultime 24 ore): 13°C


METAR ORIGINALE
LIML 250720Z VRB02KT 9999 SCT020 SCT070 17/14 Q1017 NOSIG



[ Indietro ]


Elaborazione dati by Datameteo.com - Lrc srl Copyright ©, All rights reserved.
Visualizza la versione web
©2010 Datameteo.com
weather mobile,mobile weather,meteo mobile,mobile meteo,meteo sul telefonino datameteo.com